createdAt,value
2023-02-12T00:00:03.658Z,3
2023-02-12T00:05:02.331Z,4
2023-02-12T00:10:02.162Z,4
2023-02-12T00:15:01.745Z,4
2023-02-12T00:20:02.360Z,5
2023-02-12T00:25:01.730Z,5
2023-02-12T00:30:02.122Z,6
2023-02-12T00:35:01.519Z,5
2023-02-12T00:40:02.355Z,4
2023-02-12T00:45:01.877Z,5
2023-02-12T00:50:02.355Z,5
2023-02-12T00:55:01.840Z,5
2023-02-12T01:00:02.225Z,4
2023-02-12T01:05:01.783Z,5
2023-02-12T01:10:02.226Z,5
2023-02-12T01:15:02.039Z,5
2023-02-12T01:20:01.581Z,4
2023-02-12T01:25:02.358Z,5
2023-02-12T01:30:01.743Z,5
2023-02-12T01:35:02.115Z,4
2023-02-12T01:40:01.559Z,4
2023-02-12T01:45:01.942Z,4
2023-02-12T01:50:02.433Z,4
2023-02-12T01:55:01.919Z,5
2023-02-12T02:00:02.314Z,5
2023-02-12T02:05:02.160Z,5
2023-02-12T02:10:01.580Z,4
2023-02-12T02:15:02.002Z,4
2023-02-12T02:20:01.460Z,4
2023-02-12T02:25:01.857Z,4
2023-02-12T02:30:02.648Z,4
2023-02-12T02:35:02.079Z,4
2023-02-12T02:40:01.490Z,3
2023-02-12T02:45:01.882Z,4
2023-02-12T02:50:02.672Z,3
2023-02-12T02:55:02.051Z,4
2023-02-12T03:00:01.539Z,2
2023-02-12T03:05:01.923Z,3
2023-02-12T03:10:01.738Z,2
2023-02-12T03:15:02.102Z,3
2023-02-12T03:20:01.983Z,3
2023-02-12T03:25:01.343Z,3
2023-02-12T03:30:01.729Z,3
2023-02-12T03:35:02.070Z,3
2023-02-12T03:40:01.500Z,3
2023-02-12T03:45:02.313Z,3
2023-02-12T03:50:01.814Z,4
2023-02-12T03:55:02.318Z,3
2023-02-12T04:00:01.708Z,2
2023-02-12T04:05:02.502Z,3
2023-02-12T04:10:01.935Z,2
2023-02-12T04:15:01.319Z,3
2023-02-12T04:20:02.100Z,2
2023-02-12T04:25:01.921Z,2
2023-02-12T04:30:02.291Z,2
2023-02-12T04:35:01.682Z,2
2023-02-12T04:40:02.097Z,3
2023-02-12T04:45:01.674Z,3
2023-02-12T04:50:02.169Z,2
2023-02-12T04:55:01.665Z,2
2023-02-12T05:00:02.120Z,3
2023-02-12T05:05:01.578Z,2
2023-02-12T05:10:02.445Z,2
2023-02-12T05:15:01.835Z,2
2023-02-12T05:20:02.418Z,2
2023-02-12T05:25:01.804Z,2
2023-02-12T05:30:01.494Z,2
2023-02-12T05:35:02.016Z,2
2023-02-12T05:40:01.433Z,2
2023-02-12T05:45:01.866Z,1
2023-02-12T05:50:02.128Z,2
2023-02-12T05:55:01.625Z,1
2023-02-12T06:00:02.461Z,2
2023-02-12T06:05:01.970Z,1
2023-02-12T06:10:01.534Z,1
2023-02-12T06:15:01.904Z,2
2023-02-12T06:20:01.347Z,1
2023-02-12T06:25:01.726Z,1
2023-02-12T06:30:02.254Z,2
2023-02-12T06:35:01.767Z,1
2023-02-12T06:40:02.189Z,1
2023-02-12T06:45:01.578Z,2
2023-02-12T06:50:01.945Z,1
2023-02-12T06:55:01.463Z,2
2023-02-12T07:00:01.864Z,2
2023-02-12T07:05:02.391Z,1
2023-02-12T07:10:01.977Z,1
2023-02-12T07:15:01.528Z,2
2023-02-12T07:20:02.101Z,1
2023-02-12T07:25:01.592Z,1
2023-02-12T07:30:01.985Z,1
2023-02-12T07:35:01.396Z,1
2023-02-12T07:40:01.899Z,1
2023-02-12T07:45:02.285Z,1
2023-02-12T07:50:01.644Z,1
2023-02-12T07:55:02.140Z,1
2023-02-12T08:00:01.998Z,1
2023-02-12T08:05:01.375Z,1
2023-02-12T08:10:01.919Z,2
2023-02-12T08:15:02.435Z,1
2023-02-12T08:20:01.999Z,1
2023-02-12T08:25:01.393Z,1
2023-02-12T08:30:01.766Z,1
2023-02-12T08:35:02.123Z,1
2023-02-12T08:40:01.690Z,2
2023-02-12T08:45:02.191Z,2
2023-02-12T08:50:01.568Z,2
2023-02-12T08:55:02.411Z,1
2023-02-12T09:00:02.276Z,2
2023-02-12T09:05:01.869Z,2
2023-02-12T09:10:02.447Z,2
2023-02-12T09:15:01.966Z,2
2023-02-12T09:20:01.495Z,2
2023-02-12T09:25:01.869Z,2
2023-02-12T09:30:02.410Z,2
2023-02-12T09:35:01.938Z,2
2023-02-12T09:40:01.557Z,3
2023-02-12T09:45:02.073Z,3
2023-02-12T09:50:01.637Z,2
2023-02-12T09:55:02.135Z,1
2023-02-12T10:00:01.701Z,3
2023-02-12T10:05:02.841Z,2
2023-02-12T10:10:02.729Z,3
2023-02-12T10:15:02.108Z,3
2023-02-12T10:20:01.610Z,3
2023-02-12T10:25:02.164Z,3
2023-02-12T10:30:01.550Z,4
2023-02-12T10:35:02.052Z,4
2023-02-12T10:40:01.544Z,4
2023-02-12T10:45:02.067Z,4
2023-02-12T10:50:01.868Z,4
2023-02-12T10:55:01.491Z,3
2023-02-12T11:00:01.901Z,5
2023-02-12T11:05:02.450Z,5
2023-02-12T11:10:02.077Z,4
2023-02-12T11:15:01.609Z,5
2023-02-12T11:20:01.401Z,4
2023-02-12T11:25:01.900Z,5
2023-02-12T11:30:02.706Z,6
2023-02-12T11:35:02.205Z,5
2023-02-12T11:40:01.796Z,5
2023-02-12T11:45:02.372Z,7
2023-02-12T11:50:01.752Z,5
2023-02-12T11:55:02.303Z,5
2023-02-12T12:00:01.862Z,5
2023-02-12T12:05:02.649Z,4
2023-02-12T12:10:02.057Z,4
2023-02-12T12:15:01.865Z,4
2023-02-12T12:20:01.830Z,4
2023-02-12T12:25:04.728Z,3
2023-02-12T12:30:01.692Z,4
2023-02-12T12:35:02.181Z,3
2023-02-12T12:40:01.696Z,4
2023-02-12T12:45:02.523Z,4
2023-02-12T12:50:02.329Z,4
2023-02-12T12:55:02.139Z,4
2023-02-12T13:00:01.680Z,3
2023-02-12T13:05:02.143Z,5
2023-02-12T13:10:01.759Z,4
2023-02-12T13:15:02.567Z,4
2023-02-12T13:20:02.122Z,4
2023-02-12T13:25:01.693Z,3
2023-02-12T13:30:02.075Z,4
2023-02-12T13:35:01.871Z,4
2023-02-12T13:40:02.379Z,4
2023-02-12T13:45:01.800Z,4
2023-02-12T13:50:02.286Z,5
2023-02-12T13:55:01.858Z,3
2023-02-12T14:00:02.384Z,4
2023-02-12T14:05:01.885Z,5
2023-02-12T14:10:02.471Z,5
2023-02-12T14:15:01.982Z,4
2023-02-12T14:20:01.606Z,4
2023-02-12T14:25:02.110Z,5
2023-02-12T14:30:01.678Z,4
2023-02-12T14:35:02.497Z,4
2023-02-12T14:40:02.031Z,5
2023-02-12T14:45:01.557Z,4
2023-02-12T14:50:02.056Z,4
2023-02-12T14:55:01.559Z,5
2023-02-12T15:00:02.068Z,6
2023-02-12T15:05:01.617Z,4
2023-02-12T15:10:02.165Z,4
2023-02-12T15:15:01.988Z,4
2023-02-12T15:20:01.593Z,4
2023-02-12T15:25:01.981Z,5
2023-02-12T15:30:01.551Z,5
2023-02-12T15:35:02.054Z,5
2023-02-12T15:40:01.484Z,5
2023-02-12T15:45:02.296Z,5
2023-02-12T15:50:01.772Z,6
2023-02-12T15:55:02.256Z,3
2023-02-12T16:00:02.068Z,5
2023-02-12T16:05:01.569Z,4
2023-02-12T16:10:02.400Z,5
2023-02-12T16:15:01.831Z,6
2023-02-12T16:20:01.443Z,5
2023-02-12T16:25:02.263Z,6
2023-02-12T16:30:01.783Z,6
2023-02-12T16:35:02.581Z,7
2023-02-12T16:40:02.035Z,5
2023-02-12T16:45:01.576Z,5
2023-02-12T16:50:01.994Z,5
2023-02-12T16:55:01.375Z,7
2023-02-12T17:00:01.902Z,5
2023-02-12T17:05:02.497Z,6
2023-02-12T17:10:01.962Z,6
2023-02-12T17:15:01.778Z,7
2023-02-12T17:20:02.345Z,8
2023-02-12T17:25:01.720Z,7
2023-02-12T17:30:02.093Z,6
2023-02-12T17:35:01.575Z,7
2023-02-12T17:40:01.996Z,6
2023-02-12T17:45:01.359Z,7
2023-02-12T17:50:01.755Z,9
2023-02-12T17:55:02.156Z,6
2023-02-12T18:00:01.583Z,6
2023-02-12T18:05:02.410Z,6
2023-02-12T18:10:01.824Z,8
2023-02-12T18:15:02.346Z,6
2023-02-12T18:20:01.916Z,6
2023-02-12T18:25:02.398Z,7
2023-02-12T18:30:01.913Z,7
2023-02-12T18:35:02.715Z,8
2023-02-12T18:40:02.174Z,7
2023-02-12T18:45:02.025Z,9
2023-02-12T18:50:01.439Z,10
2023-02-12T18:55:01.855Z,9
2023-02-12T19:00:02.561Z,10
2023-02-12T19:05:02.523Z,10
2023-02-12T19:10:01.954Z,9
2023-02-12T19:15:01.520Z,9
2023-02-12T19:20:02.072Z,11
2023-02-12T19:25:01.458Z,11
2023-02-12T19:30:01.862Z,10
2023-02-12T19:35:02.649Z,10
2023-02-12T19:40:02.197Z,9
2023-02-12T19:45:01.605Z,9
2023-02-12T19:50:01.983Z,7
2023-02-12T19:55:01.519Z,9
2023-02-12T20:00:01.900Z,10
2023-02-12T20:05:02.681Z,9
2023-02-12T20:10:02.280Z,8
2023-02-12T20:15:01.864Z,10
2023-02-12T20:20:02.723Z,10
2023-02-12T20:25:02.113Z,10
2023-02-12T20:30:01.625Z,9
2023-02-12T20:35:02.174Z,10
2023-02-12T20:40:02.008Z,10
2023-02-12T20:45:01.553Z,9
2023-02-12T20:50:02.360Z,10
2023-02-12T20:55:01.990Z,10
2023-02-12T21:00:01.369Z,11
2023-02-12T21:05:02.155Z,9
2023-02-12T21:10:01.999Z,10
2023-02-12T21:15:01.381Z,11
2023-02-12T21:20:01.998Z,9
2023-02-12T21:25:01.480Z,10
2023-02-12T21:30:02.273Z,9
2023-02-12T21:35:01.679Z,10
2023-02-12T21:40:02.069Z,11
2023-02-12T21:45:01.568Z,9
2023-02-12T21:50:02.102Z,11
2023-02-12T21:55:01.918Z,10
2023-02-12T22:00:02.427Z,11
2023-02-12T22:05:02.310Z,11
2023-02-12T22:10:01.738Z,8
2023-02-12T22:15:02.309Z,11
2023-02-12T22:20:02.173Z,9
2023-02-12T22:25:02.026Z,10
2023-02-12T22:30:01.389Z,10
2023-02-12T22:35:01.760Z,10
2023-02-12T22:40:02.594Z,11
2023-02-12T22:45:02.118Z,10
2023-02-12T22:50:01.640Z,10
2023-02-12T22:55:02.181Z,12
2023-02-12T23:00:02.152Z,9
2023-02-12T23:05:02.376Z,9
2023-02-12T23:10:01.788Z,11
2023-02-12T23:15:01.823Z,13
2023-02-12T23:20:02.418Z,11
2023-02-12T23:25:01.816Z,9
2023-02-12T23:30:02.650Z,12
2023-02-12T23:35:02.163Z,10
2023-02-12T23:40:01.561Z,11
2023-02-12T23:45:02.158Z,9
2023-02-12T23:50:01.569Z,10
2023-02-12T23:55:02.401Z,10
